Time;durP1;ratioP1;P1;durP2;ratioP2;P2;SDS_P1;SDS_P2;PMS_P1;PMS_P2;Temp;Humidity;BMP_temperature;BMP_pressure;BME280_temperature;BME280_humidity;BME280_pressure;Samples;Min_cycle;Max_cycle;Signal;HPM_P1;HPM_P2
2021/12/07 00:02:26;;;;;;;21.17;13.88;;;;;;;-0.01;100.00;100331.50;5080974;28;20068;-87
2021/12/07 00:04:51;;;;;;;24.65;14.63;;;;;;;0.01;100.00;100325.41;5072051;28;20081;-87
2021/12/07 00:07:17;;;;;;;24.27;15.20;;;;;;;0.01;100.00;100334.09;5075902;28;20119;-86
2021/12/07 00:09:45;;;;;;;25.52;15.82;;;;;;;-0.01;100.00;100328.88;5088150;28;20262;-87
2021/12/07 00:12:12;;;;;;;25.95;15.13;;;;;;;0.02;100.00;100338.44;5073927;28;20023;-87
2021/12/07 00:14:40;;;;;;;29.92;17.15;;;;;;;-0.01;100.00;100341.09;5085461;28;20032;-88
2021/12/07 00:17:07;;;;;;;27.95;16.67;;;;;;;0.01;100.00;100338.47;5087845;28;20271;-86
2021/12/07 00:19:33;;;;;;;27.90;16.77;;;;;;;-0.03;100.00;100325.44;5074885;28;20024;-86
2021/12/07 00:22:00;;;;;;;30.67;17.42;;;;;;;0.03;100.00;100342.78;5070967;28;20055;-86
2021/12/07 00:24:26;;;;;;;32.72;18.13;;;;;;;-0.04;100.00;100333.31;5079784;28;20028;-86
2021/12/07 00:26:51;;;;;;;30.70;17.67;;;;;;;0.07;100.00;100356.69;5082987;28;20480;-86
2021/12/07 00:29:16;;;;;;;34.22;18.75;;;;;;;0.08;100.00;100354.03;5085759;28;20028;-86
2021/12/07 00:31:53;;;;;;;31.77;17.67;;;;;;;0.10;100.00;100347.03;5085480;28;20031;-85
2021/12/07 00:36:50;;;;;;;37.65;19.05;;;;;;;0.16;100.00;100367.00;5075138;28;20134;-86
2021/12/07 00:39:19;;;;;;;37.15;19.58;;;;;;;0.14;100.00;100353.09;5080754;28;20103;-86
2021/12/07 00:41:46;;;;;;;36.42;19.85;;;;;;;0.25;100.00;100364.22;5067442;28;20033;-86
2021/12/07 00:44:11;;;;;;;39.25;20.23;;;;;;;0.23;100.00;100360.78;5076215;28;20520;-86
2021/12/07 00:46:37;;;;;;;39.20;20.67;;;;;;;0.32;100.00;100371.09;5075498;28;20047;-85
2021/12/07 00:49:03;;;;;;;43.20;22.17;;;;;;;0.27;100.00;100359.00;5087037;28;20078;-85
2021/12/07 00:51:29;;;;;;;42.38;21.77;;;;;;;0.37;100.00;100373.63;5091651;28;20024;-86
2021/12/07 00:53:54;;;;;;;48.97;23.65;;;;;;;0.41;100.00;100378.78;5087474;28;20024;-86
2021/12/07 00:56:21;;;;;;;49.30;23.90;;;;;;;0.39;100.00;100374.50;5083914;28;20127;-86
2021/12/07 00:58:47;;;;;;;47.20;22.45;;;;;;;0.50;100.00;100396.09;5089761;28;20024;-86
2021/12/07 01:01:16;;;;;;;45.40;22.88;;;;;;;0.57;100.00;100392.50;5088381;28;20023;-86
2021/12/07 01:03:42;;;;;;;50.65;23.67;;;;;;;0.61;100.00;100393.31;5078190;28;20027;-86
2021/12/07 01:06:23;;;;;;;52.30;23.75;;;;;;;0.70;100.00;100399.25;5082876;28;20857;-86
2021/12/07 01:09:00;;;;;;;53.33;23.48;;;;;;;0.79;100.00;100419.16;5081885;28;20032;-86
2021/12/07 01:25:14;;;;;;;49.83;21.38;;;;;;;1.02;100.00;100437.13;5084370;28;20512;-87
2021/12/07 01:27:39;;;;;;;48.40;20.55;;;;;;;1.15;100.00;100454.34;5089213;28;20534;-85
2021/12/07 01:30:36;;;;;;;52.22;20.90;;;;;;;1.21;100.00;100458.59;5073907;28;20057;-86
2021/12/07 01:38:21;;;;;;;44.93;20.43;;;;;;;1.23;100.00;100456.81;5084526;28;20036;-87
2021/12/07 01:59:47;;;;;;;44.63;16.50;;;;;;;1.20;100.00;100489.19;5078483;28;20052;-86
2021/12/07 02:02:15;;;;;;;35.28;15.98;;;;;;;1.16;100.00;100489.28;5087959;28;20036;-86
2021/12/07 02:04:41;;;;;;;38.38;16.48;;;;;;;1.20;100.00;100493.56;5078934;28;20036;-86
2021/12/07 02:07:07;;;;;;;45.88;15.60;;;;;;;1.19;100.00;100491.84;5075729;28;20024;-86
2021/12/07 02:09:35;;;;;;;40.33;15.05;;;;;;;1.26;100.00;100498.72;5089939;28;20035;-86
2021/12/07 02:12:02;;;;;;;41.42;15.40;;;;;;;1.29;100.00;100508.28;5089890;28;20054;-86
2021/12/07 02:14:30;;;;;;;43.45;15.15;;;;;;;1.27;100.00;100523.19;5088514;28;20115;-87
2021/12/07 02:17:03;;;;;;;33.80;13.98;;;;;;;1.26;100.00;100511.84;5086634;28;20119;-86
2021/12/07 02:19:28;;;;;;;49.03;15.15;;;;;;;1.31;100.00;100523.09;5089223;28;20078;-86
2021/12/07 02:21:55;;;;;;;41.33;13.82;;;;;;;1.31;100.00;100525.72;5069454;28;20055;-86
2021/12/07 02:24:20;;;;;;;33.78;13.98;;;;;;;1.31;100.00;100522.25;5077517;28;20423;-86
2021/12/07 02:26:47;;;;;;;32.75;12.00;;;;;;;1.29;100.00;100521.38;5089791;28;20165;-87
2021/12/07 02:29:13;;;;;;;38.80;12.60;;;;;;;1.21;100.00;100508.41;5086780;28;20378;-86
2021/12/07 02:31:39;;;;;;;35.85;12.20;;;;;;;1.34;100.00;100540.50;5069215;28;20082;-86
2021/12/07 02:34:05;;;;;;;45.30;12.38;;;;;;;1.28;100.00;100538.88;5083346;28;20070;-86
2021/12/07 02:36:30;;;;;;;33.03;11.32;;;;;;;1.20;100.00;100522.41;5087943;28;20111;-87
2021/12/07 02:38:56;;;;;;;36.28;11.55;;;;;;;1.29;100.00;100537.97;5077873;28;20155;-86
2021/12/07 02:41:21;;;;;;;37.95;10.90;;;;;;;1.20;100.00;100532.91;5058740;28;20405;-86
2021/12/07 02:43:47;;;;;;;26.25;11.25;;;;;;;1.20;100.00;100551.25;5087934;28;20115;-86
2021/12/07 02:46:12;;;;;;;33.03;10.40;;;;;;;1.16;100.00;100542.56;5088692;28;20027;-86
2021/12/07 02:48:38;;;;;;;32.50;11.02;;;;;;;1.21;100.00;100550.34;5070448;28;20025;-86
2021/12/07 02:51:03;;;;;;;35.95;11.88;;;;;;;1.20;100.00;100556.50;5068264;28;20445;-86
2021/12/07 02:53:30;;;;;;;28.90;9.35;;;;;;;1.22;100.00;100565.22;5082040;28;20028;-86
2021/12/07 02:55:58;;;;;;;25.52;9.50;;;;;;;1.22;100.00;100566.06;5088124;28;20020;-86
2021/12/07 02:58:24;;;;;;;36.45;9.80;;;;;;;1.17;100.00;100574.88;5085642;28;20033;-86
2021/12/07 03:01:02;;;;;;;27.45;8.50;;;;;;;1.11;100.00;100575.00;5085040;28;20032;-86
2021/12/07 03:03:31;;;;;;;30.48;9.73;;;;;;;1.07;100.00;100568.94;5072799;28;20401;-86
2021/12/07 03:06:15;;;;;;;27.58;9.13;;;;;;;1.07;100.00;100587.28;5068400;28;20043;-85
2021/12/07 03:09:16;;;;;;;27.95;9.02;;;;;;;1.01;100.00;100578.69;5081515;28;20024;-86
2021/12/07 03:27:59;;;;;;;25.85;7.60;;;;;;;0.89;100.00;100606.78;5087448;28;20047;-86
2021/12/07 03:30:25;;;;;;;29.35;7.45;;;;;;;0.90;100.00;100607.66;5070954;28;20024;-87
2021/12/07 03:32:51;;;;;;;35.22;8.82;;;;;;;0.89;100.00;100609.41;5075642;28;20047;-85
2021/12/07 03:35:17;;;;;;;30.60;7.95;;;;;;;0.85;100.00;100612.09;5087148;28;20116;-86
2021/12/07 03:37:42;;;;;;;22.60;6.97;;;;;;;0.81;100.00;100621.75;5078855;28;20024;-86
2021/12/07 03:40:09;;;;;;;31.75;7.00;;;;;;;0.80;100.00;100620.03;5086472;28;20439;-86
2021/12/07 03:42:35;;;;;;;21.25;7.10;;;;;;;0.78;100.00;100632.28;5087318;28;20032;-86
2021/12/07 03:45:01;;;;;;;27.25;6.20;;;;;;;0.80;100.00;100629.66;5079310;28;20384;-86
2021/12/07 03:47:26;;;;;;;32.70;7.07;;;;;;;0.79;100.00;100641.00;5087145;28;20024;-86
2021/12/07 03:49:51;;;;;;;27.00;6.85;;;;;;;0.70;100.00;100635.00;5083225;28;20024;-86
2021/12/07 03:52:16;;;;;;;29.48;6.72;;;;;;;0.76;100.00;100655.03;5067277;28;20458;-86
2021/12/07 03:54:42;;;;;;;28.42;7.18;;;;;;;0.74;100.00;100655.03;5082919;28;20031;-85
2021/12/07 03:57:07;;;;;;;26.88;6.72;;;;;;;0.72;100.00;100650.72;5087546;28;20625;-85
2021/12/07 03:59:32;;;;;;;23.95;6.75;;;;;;;0.76;100.00;100652.41;5086950;28;20035;-85
2021/12/07 04:01:58;;;;;;;31.75;7.22;;;;;;;0.74;100.00;100654.16;5077268;28;20453;-85
2021/12/07 04:04:23;;;;;;;28.65;6.80;;;;;;;0.75;100.00;100661.13;5081439;28;20223;-85
2021/12/07 04:06:48;;;;;;;24.88;7.57;;;;;;;0.70;100.00;100655.09;5067743;28;20078;-86
2021/12/07 04:09:14;;;;;;;27.45;7.22;;;;;;;0.69;100.00;100651.59;5086264;28;20458;-86
2021/12/07 04:11:39;;;;;;;27.77;7.25;;;;;;;0.68;100.00;100641.16;5080204;28;20142;-85
2021/12/07 04:14:04;;;;;;;26.13;6.80;;;;;;;0.58;100.00;100653.50;5085864;28;20024;-85
2021/12/07 04:16:29;;;;;;;36.88;8.20;;;;;;;0.58;100.00;100663.09;5074728;28;20025;-86
2021/12/07 04:18:55;;;;;;;28.75;7.95;;;;;;;0.55;100.00;100668.41;5079628;28;20390;-85
2021/12/07 04:21:20;;;;;;;28.80;8.02;;;;;;;0.50;100.00;100673.69;5067049;28;20815;-86
2021/12/07 04:23:46;;;;;;;29.42;8.38;;;;;;;0.47;100.00;100677.22;5076844;28;20027;-85
2021/12/07 04:26:13;;;;;;;30.77;8.57;;;;;;;0.44;100.00;100668.53;5091337;28;20091;-85
2021/12/07 04:28:40;;;;;;;29.88;8.85;;;;;;;0.41;100.00;100671.19;5090268;28;20039;-85
2021/12/07 04:31:06;;;;;;;37.10;9.30;;;;;;;0.39;100.00;100675.56;5091863;28;20028;-85
2021/12/07 04:33:32;;;;;;;32.60;9.73;;;;;;;0.37;100.00;100666.84;5089106;28;20115;-85
2021/12/07 04:35:58;;;;;;;25.90;9.88;;;;;;;0.38;100.00;100685.19;5070664;28;20123;-86
2021/12/07 04:38:24;;;;;;;33.72;9.98;;;;;;;0.33;100.00;100670.41;5090382;28;20036;-86
2021/12/07 04:40:49;;;;;;;27.83;9.80;;;;;;;0.33;100.00;100673.88;5074847;28;20032;-86
2021/12/07 04:43:15;;;;;;;29.15;10.48;;;;;;;0.35;100.00;100674.75;5084727;28;20020;-86
2021/12/07 04:58:36;;;;;;;40.22;10.75;;;;;;;0.42;100.00;100692.13;5075549;28;20413;-87
2021/12/07 05:01:09;;;;;;;34.63;10.98;;;;;;;0.43;100.00;100696.47;5088147;28;20020;-87
2021/12/07 05:03:35;;;;;;;26.23;11.18;;;;;;;0.40;100.00;100699.13;5083708;28;20073;-88
2021/12/07 05:06:00;;;;;;;32.05;9.80;;;;;;;0.37;100.00;100683.44;5091171;28;20020;-87
2021/12/07 05:08:43;;;;;;;33.00;10.10;;;;;;;0.35;100.00;100707.91;5072119;28;20056;-87
2021/12/07 05:13:40;;;;;;;35.65;9.90;;;;;;;0.34;100.00;100714.91;5084890;28;20020;-87
2021/12/07 05:16:24;;;;;;;33.88;9.90;;;;;;;0.39;100.00;100725.31;5089068;28;20392;-85
2021/12/07 05:24:10;;;;;;;36.47;11.40;;;;;;;0.31;100.00;100729.78;5089141;28;20131;-85
2021/12/07 05:37:46;;;;;;;35.80;10.40;;;;;;;0.18;100.00;100763.06;5028124;28;20029;-86
2021/12/07 05:40:33;;;;;;;28.30;9.98;;;;;;;0.21;100.00;100765.66;5044395;28;20045;-86
2021/12/07 05:42:59;;;;;;;36.83;10.02;;;;;;;0.20;100.00;100759.53;5043852;28;20111;-86
2021/12/07 05:45:34;;;;;;;31.00;11.27;;;;;;;0.23;100.00;100766.50;5046905;28;20358;-85
2021/12/07 05:48:02;;;;;;;28.33;10.55;;;;;;;0.14;100.00;100775.31;5046679;28;20041;-87
2021/12/07 05:50:30;;;;;;;31.25;9.85;;;;;;;0.19;100.00;100788.34;5046232;28;20460;-86
2021/12/07 05:52:56;;;;;;;36.85;11.05;;;;;;;0.14;100.00;100790.16;5045479;28;20415;-86
2021/12/07 05:55:23;;;;;;;44.90;13.25;;;;;;;0.14;100.00;100795.38;5047082;28;20037;-86
2021/12/07 05:57:49;;;;;;;34.22;11.25;;;;;;;0.13;100.00;100798.88;5047552;28;20120;-85
2021/12/07 06:00:23;;;;;;;31.67;10.60;;;;;;;0.11;100.00;100805.88;5046454;28;20115;-86
2021/12/07 06:02:49;;;;;;;36.97;11.23;;;;;;;0.05;100.00;100809.41;5045315;28;20123;-85
2021/12/07 06:05:15;;;;;;;36.15;11.13;;;;;;;0.10;100.00;100804.13;5047394;28;20381;-86
2021/12/07 06:07:40;;;;;;;39.05;11.93;;;;;;;0.11;100.00;100806.72;5070093;28;20111;-86
2021/12/07 06:10:06;;;;;;;43.88;13.48;;;;;;;0.10;100.00;100812.84;5088153;28;20489;-86
2021/12/07 06:12:32;;;;;;;33.17;12.05;;;;;;;0.03;100.00;100798.06;5086144;28;20042;-86
2021/12/07 06:14:57;;;;;;;44.65;12.77;;;;;;;-0.02;100.00;100803.34;5089099;28;20111;-85
2021/12/07 06:17:22;;;;;;;33.85;12.57;;;;;;;0.01;100.00;100818.16;5087441;28;20052;-85
2021/12/07 06:19:48;;;;;;;37.85;12.82;;;;;;;0.02;100.00;100814.66;5081375;28;20072;-86
2021/12/07 06:22:13;;;;;;;37.90;12.27;;;;;;;0.04;100.00;100814.63;5078830;28;20476;-86
2021/12/07 06:24:39;;;;;;;36.53;11.68;;;;;;;-0.05;100.00;100795.53;5089606;28;20081;-86
2021/12/07 06:27:04;;;;;;;32.65;11.75;;;;;;;-0.03;100.00;100809.47;5088895;28;20027;-85
2021/12/07 06:29:29;;;;;;;42.53;12.73;;;;;;;-0.10;100.00;100796.44;5079842;28;20036;-85
2021/12/07 06:31:55;;;;;;;38.67;12.85;;;;;;;-0.06;100.00;100806.00;5071467;28;20024;-85
2021/12/07 06:34:20;;;;;;;38.47;13.02;;;;;;;-0.12;100.00;100806.06;5087407;28;20382;-85
2021/12/07 06:36:47;;;;;;;31.17;12.20;;;;;;;-0.14;100.00;100813.91;5089172;28;20016;-85
2021/12/07 06:39:13;;;;;;;46.50;13.82;;;;;;;-0.13;100.00;100813.03;5079624;28;20077;-85
2021/12/07 06:41:38;;;;;;;38.92;13.32;;;;;;;-0.15;100.00;100806.94;5081547;28;20066;-86
2021/12/07 06:44:04;;;;;;;38.97;13.75;;;;;;;-0.08;100.00;100821.72;5088517;28;20031;-85
2021/12/07 06:46:30;;;;;;;39.33;13.43;;;;;;;-0.09;100.00;100819.97;5083593;28;20024;-86
2021/12/07 06:48:55;;;;;;;40.90;12.88;;;;;;;-0.12;100.00;100821.78;5068173;28;20024;-85
2021/12/07 06:51:21;;;;;;;45.20;13.63;;;;;;;-0.15;100.00;100820.03;5072923;28;20024;-85
2021/12/07 06:53:46;;;;;;;47.80;14.70;;;;;;;-0.19;100.00;100805.22;5078246;28;20028;-85
2021/12/07 06:56:12;;;;;;;48.33;13.52;;;;;;;-0.15;100.00;100814.78;5089145;28;20432;-86
2021/12/07 06:58:38;;;;;;;44.35;12.77;;;;;;;-0.12;100.00;100819.16;5077073;28;20450;-85
2021/12/07 07:01:06;;;;;;;45.92;14.48;;;;;;;-0.14;100.00;100828.75;5085638;28;20032;-86
2021/12/07 07:03:32;;;;;;;36.63;13.88;;;;;;;-0.21;100.00;100819.19;5086842;28;20519;-86
2021/12/07 07:05:57;;;;;;;43.55;14.13;;;;;;;-0.19;100.00;100818.31;5080746;28;20059;-86
2021/12/07 07:08:22;;;;;;;39.63;13.73;;;;;;;-0.21;100.00;100819.19;5072655;28;20393;-85
2021/12/07 07:10:48;;;;;;;42.78;13.57;;;;;;;-0.24;100.00;100835.78;5074099;28;20035;-86
2021/12/07 07:13:14;;;;;;;35.03;12.95;;;;;;;-0.28;100.00;100827.09;5082696;28;20050;-86
2021/12/07 07:15:40;;;;;;;35.00;12.38;;;;;;;-0.26;100.00;100832.31;5088224;28;20114;-87
2021/12/07 07:18:05;;;;;;;38.20;12.30;;;;;;;-0.22;100.00;100825.31;5086612;28;20549;-87
2021/12/07 07:20:31;;;;;;;42.97;13.70;;;;;;;-0.19;100.00;100839.25;5088988;28;20028;-85
2021/12/07 07:22:56;;;;;;;37.30;12.00;;;;;;;-0.19;100.00;100841.00;5086477;28;20370;-85
2021/12/07 07:25:22;;;;;;;37.58;12.35;;;;;;;-0.19;100.00;100835.75;5075272;28;20645;-85
2021/12/07 07:27:47;;;;;;;44.28;13.13;;;;;;;-0.22;100.00;100835.78;5068619;28;20024;-88
2021/12/07 07:30:15;;;;;;;45.75;12.45;;;;;;;-0.24;100.00;100832.31;5080176;28;20379;-87
2021/12/07 07:32:41;;;;;;;36.60;11.57;;;;;;;-0.26;100.00;100842.78;5085288;28;20020;-86
2021/12/07 07:35:07;;;;;;;31.08;11.10;;;;;;;-0.24;100.00;100856.72;5086677;28;20107;-85
2021/12/07 07:37:33;;;;;;;39.58;12.20;;;;;;;-0.18;100.00;100854.06;5081477;28;20081;-86
2021/12/07 07:39:58;;;;;;;51.78;13.73;;;;;;;-0.12;100.00;100854.03;5075815;28;20028;-87
2021/12/07 07:42:24;;;;;;;40.08;13.38;;;;;;;-0.06;100.00;100851.34;5082239;28;20051;-87
2021/12/07 07:44:49;;;;;;;47.90;13.80;;;;;;;-0.02;100.00;100853.06;5084522;28;20020;-85
2021/12/07 07:47:14;;;;;;;43.38;13.05;;;;;;;0.04;100.00;100851.28;5076913;28;20024;-85
2021/12/07 07:49:39;;;;;;;43.80;13.93;;;;;;;0.06;100.00;100852.16;5082305;28;20461;-87
2021/12/07 07:52:05;;;;;;;43.90;12.02;;;;;;;0.05;100.00;100843.44;5079907;28;20047;-86
2021/12/07 07:54:31;;;;;;;35.83;11.98;;;;;;;0.09;100.00;100839.91;5084290;28;20074;-87
2021/12/07 07:56:56;;;;;;;32.78;12.57;;;;;;;0.05;100.00;100826.88;5076800;28;20046;-87
2021/12/07 07:59:21;;;;;;;34.25;11.82;;;;;;;0.08;100.00;100835.53;5072212;28;20032;-87
2021/12/07 08:01:47;;;;;;;36.83;11.18;;;;;;;0.11;100.00;100839.88;5091393;28;20027;-86
2021/12/07 08:04:12;;;;;;;32.53;12.40;;;;;;;0.06;100.00;100836.44;5073319;28;20038;-86
2021/12/07 08:06:37;;;;;;;34.03;11.88;;;;;;;0.01;100.00;100830.38;5074626;28;20059;-87
2021/12/07 08:09:05;;;;;;;37.95;12.23;;;;;;;0.05;100.00;100842.56;5080254;28;20028;-87
2021/12/07 08:11:31;;;;;;;39.72;12.93;;;;;;;0.06;100.00;100836.44;5084226;28;20039;-85
2021/12/07 08:13:56;;;;;;;36.20;11.45;;;;;;;0.11;100.00;100842.50;5076550;28;20025;-87
2021/12/07 08:16:22;;;;;;;35.70;12.07;;;;;;;0.14;100.00;100847.72;5087951;28;20031;-86
2021/12/07 08:18:50;;;;;;;32.88;11.75;;;;;;;0.16;100.00;100840.72;5088618;28;20043;-86
2021/12/07 08:21:17;;;;;;;36.58;12.18;;;;;;;0.18;100.00;100849.44;5085211;28;20031;-86
2021/12/07 08:23:43;;;;;;;32.20;12.38;;;;;;;0.22;100.00;100853.78;5094562;28;20035;-87
2021/12/07 08:26:11;;;;;;;33.03;12.00;;;;;;;0.24;100.00;100858.09;5092214;28;20032;-85
2021/12/07 08:28:37;;;;;;;33.80;11.45;;;;;;;0.28;100.00;100864.16;5080937;28;20021;-85
2021/12/07 08:31:03;;;;;;;31.17;11.75;;;;;;;0.31;100.00;100876.38;5086003;28;21377;-85
2021/12/07 08:33:29;;;;;;;35.75;11.63;;;;;;;0.33;100.00;100870.22;5094292;28;20032;-85
2021/12/07 08:35:55;;;;;;;33.05;12.63;;;;;;;0.34;100.00;100879.84;5093810;28;20030;-85
2021/12/07 08:38:21;;;;;;;30.40;11.27;;;;;;;0.35;100.00;100873.72;5087284;28;20326;-86
2021/12/07 08:40:53;;;;;;;33.00;12.27;;;;;;;0.30;100.00;100861.56;5091802;28;20035;-88
2021/12/07 08:43:22;;;;;;;30.40;12.45;;;;;;;0.32;100.00;100875.50;5093685;28;20277;-89
2021/12/07 08:45:49;;;;;;;27.17;10.75;;;;;;;0.31;100.00;100877.25;5088084;28;20110;-88
2021/12/07 08:48:14;;;;;;;22.38;10.20;;;;;;;0.30;100.00;100883.38;5081242;28;20117;-87
2021/12/07 08:50:42;;;;;;;31.60;10.45;;;;;;;0.27;100.00;100875.53;5092924;28;20461;-89
2021/12/07 08:53:11;;;;;;;30.27;10.15;;;;;;;0.28;100.00;100872.03;5092597;28;20020;-89
2021/12/07 09:01:07;;;;;;;33.13;10.60;;;;;;;0.30;100.00;100846.72;5090515;28;20043;-87
2021/12/07 09:03:33;;;;;;;35.15;11.48;;;;;;;0.33;100.00;100848.41;5090221;28;20020;-88
2021/12/07 09:05:59;;;;;;;34.90;12.50;;;;;;;0.34;100.00;100840.56;5084967;28;20027;-89
2021/12/07 09:08:24;;;;;;;31.40;11.52;;;;;;;0.42;100.00;100833.53;5096798;28;20031;-90
2021/12/07 09:10:51;;;;;;;36.70;12.88;;;;;;;0.33;100.00;100809.16;5089460;28;20020;-89
2021/12/07 09:13:17;;;;;;;33.65;12.20;;;;;;;0.44;100.00;100820.41;5090634;28;20089;-90
2021/12/07 09:15:42;;;;;;;29.45;11.63;;;;;;;0.47;100.00;100815.13;5085502;28;20169;-87
2021/12/07 09:18:08;;;;;;;36.92;12.30;;;;;;;0.56;100.00;100825.53;5082228;28;20041;-88
2021/12/07 09:20:35;;;;;;;34.83;12.73;;;;;;;0.59;100.00;100827.25;5050915;28;20043;-83
2021/12/07 09:23:00;;;;;;;37.50;12.55;;;;;;;0.56;100.00;100817.66;5061565;28;20480;-82
2021/12/07 09:25:26;;;;;;;31.65;12.68;;;;;;;0.62;100.00;100825.44;5069114;28;20052;-82
2021/12/07 09:27:51;;;;;;;26.55;10.93;;;;;;;0.62;100.00;100832.44;5046851;28;20039;-82
2021/12/07 09:30:18;;;;;;;26.08;10.77;;;;;;;0.63;100.00;100832.44;5064706;28;20032;-82
2021/12/07 09:32:46;;;;;;;34.38;12.75;;;;;;;0.62;100.00;100837.66;5067550;28;20035;-86
2021/12/07 09:35:13;;;;;;;29.58;12.20;;;;;;;0.58;100.00;100830.72;5065068;28;20024;-86
2021/12/07 09:37:39;;;;;;;24.55;10.30;;;;;;;0.60;100.00;100834.22;5052224;28;20036;-86
2021/12/07 09:40:10;;;;;;;28.88;11.40;;;;;;;0.66;100.00;100844.63;5068813;28;20056;-87
2021/12/07 09:42:35;;;;;;;32.90;11.20;;;;;;;0.62;100.00;100829.81;5068051;28;20036;-87
2021/12/07 09:45:02;;;;;;;28.42;10.70;;;;;;;0.65;100.00;100830.66;5059033;28;20037;-86
2021/12/07 09:47:27;;;;;;;26.80;9.80;;;;;;;0.69;100.00;100841.97;5044399;28;20029;-86
2021/12/07 09:49:52;;;;;;;24.50;10.02;;;;;;;0.65;100.00;100819.31;5068212;28;20043;-86
2021/12/07 09:52:18;;;;;;;27.83;9.05;;;;;;;0.71;100.00;100830.59;5049977;28;20396;-86
2021/12/07 09:54:43;;;;;;;21.75;9.45;;;;;;;0.65;100.00;100829.78;5069727;28;20391;-87
2021/12/07 09:57:08;;;;;;;29.08;9.60;;;;;;;0.72;100.00;100850.69;5068564;28;20024;-87
2021/12/07 09:59:34;;;;;;;27.67;9.48;;;;;;;0.74;100.00;100829.69;5069324;28;20036;-86
2021/12/07 10:01:59;;;;;;;21.35;9.00;;;;;;;0.77;100.00;100824.41;5067597;28;20090;-86
2021/12/07 10:04:27;;;;;;;23.70;9.95;;;;;;;0.79;100.00;100829.63;5067379;28;20382;-86
2021/12/07 10:06:54;;;;;;;28.02;10.00;;;;;;;0.78;100.00;100820.91;5068145;28;20295;-86
2021/12/07 10:09:20;;;;;;;24.13;8.77;;;;;;;0.82;100.00;100827.84;5061203;28;20024;-86
2021/12/07 10:11:49;;;;;;;27.92;9.13;;;;;;;0.87;100.00;100830.41;5062133;28;20374;-87
2021/12/07 10:14:14;;;;;;;25.08;8.82;;;;;;;0.88;100.00;100822.56;5064904;28;20090;-87
2021/12/07 10:16:45;;;;;;;18.30;9.35;;;;;;;0.89;100.00;100812.94;5065493;28;20405;-86
2021/12/07 10:19:11;;;;;;;23.02;8.32;;;;;;;0.95;100.00;100815.47;5084923;28;20047;-85
2021/12/07 10:21:41;;;;;;;29.95;9.48;;;;;;;0.99;100.00;100804.94;5086744;28;20102;-85
2021/12/07 10:24:10;;;;;;;30.67;9.10;;;;;;;1.01;100.00;100807.56;5088879;28;20111;-85
2021/12/07 10:26:41;;;;;;;22.70;8.05;;;;;;;1.04;100.00;100806.63;5088168;28;20441;-85
2021/12/07 10:29:13;;;;;;;19.55;8.20;;;;;;;0.99;100.00;100799.69;5089283;28;20027;-85
2021/12/07 10:31:45;;;;;;;29.85;9.43;;;;;;;1.09;100.00;100805.72;5088451;28;20028;-85
2021/12/07 10:34:19;;;;;;;31.13;8.43;;;;;;;1.10;100.00;100801.31;5089070;28;20377;-85
2021/12/07 10:36:51;;;;;;;25.40;8.13;;;;;;;1.09;100.00;100791.75;5089189;28;20042;-85
2021/12/07 10:39:37;;;;;;;28.38;8.32;;;;;;;1.17;100.00;100792.47;5083872;28;20024;-85
2021/12/07 10:42:06;;;;;;;30.63;8.50;;;;;;;1.15;100.00;100786.41;5085629;28;20032;-86
2021/12/07 10:44:38;;;;;;;27.35;8.15;;;;;;;1.16;100.00;100775.03;5088026;28;20032;-86
2021/12/07 10:47:06;;;;;;;23.63;8.15;;;;;;;1.21;100.00;100773.19;5088407;28;20103;-86
2021/12/07 10:49:53;;;;;;;28.13;8.95;;;;;;;1.16;100.00;100757.53;5087974;28;20016;-86
2021/12/07 10:52:33;;;;;;;25.08;7.90;;;;;;;1.24;100.00;100758.28;5087425;28;20044;-86
2021/12/07 10:55:10;;;;;;;31.45;9.88;;;;;;;1.30;100.00;100756.50;5088554;28;20027;-86
2021/12/07 10:57:43;;;;;;;22.08;7.20;;;;;;;1.29;100.00;100758.22;5088322;28;20038;-85
2021/12/07 11:00:17;;;;;;;22.73;7.68;;;;;;;1.32;100.00;100746.84;5086305;28;20043;-86
2021/12/07 11:02:44;;;;;;;;;;;;;;;1.36;100.00;100744.16;5080762;28;20028;-85
2021/12/07 11:05:15;;;;;;;20.38;7.30;;;;;;;1.37;100.00;100730.13;5073073;28;20353;-86
2021/12/07 11:07:41;;;;;;;21.00;7.78;;;;;;;1.43;100.00;100724.81;5088033;28;20032;-85
2021/12/07 11:10:20;;;;;;;29.48;7.88;;;;;;;1.49;100.00;100723.84;5085653;28;20012;-85
2021/12/07 11:12:59;;;;;;;26.55;8.90;;;;;;;1.51;100.00;100723.84;5082206;28;20174;-84
2021/12/07 11:15:28;;;;;;;24.10;8.48;;;;;;;1.57;100.00;100715.84;5078206;28;20124;-80
2021/12/07 11:17:58;;;;;;;26.55;7.45;;;;;;;1.57;100.00;100702.75;5088561;28;20040;-81
2021/12/07 11:20:26;;;;;;;28.15;8.80;;;;;;;1.57;100.00;100703.59;5086112;28;20035;-80
2021/12/07 11:22:57;;;;;;;24.05;7.88;;;;;;;1.54;100.00;100702.78;5083761;28;20383;-81
2021/12/07 11:31:36;;;;;;;22.65;8.50;;;;;;;1.56;100.00;100695.78;5085285;28;20043;-84
2021/12/07 11:34:15;;;;;;;23.95;7.63;;;;;;;1.52;100.00;100686.22;5088172;28;20491;-83
2021/12/07 11:36:44;;;;;;;24.33;7.35;;;;;;;1.58;100.00;100689.59;5087625;28;20024;-84
2021/12/07 11:39:32;;;;;;;21.35;7.05;;;;;;;1.58;100.00;100688.72;5086385;28;20437;-85
2021/12/07 11:42:25;;;;;;;23.13;7.18;;;;;;;1.58;100.00;100691.34;5074545;28;20024;-83
2021/12/07 11:45:00;;;;;;;23.02;6.90;;;;;;;1.57;100.00;100668.66;5081681;28;20041;-83
2021/12/07 11:47:29;;;;;;;18.52;6.00;;;;;;;1.64;100.00;100679.00;5083483;28;20101;-83
2021/12/07 11:49:57;;;;;;;19.35;6.68;;;;;;;1.76;100.00;100691.06;5084389;28;20024;-85
2021/12/07 11:52:22;;;;;;;15.55;6.10;;;;;;;1.80;100.00;100677.00;5087700;28;20030;-82
2021/12/07 11:54:48;;;;;;;15.18;6.00;;;;;;;1.79;100.00;100675.25;5087589;28;20128;-85
2021/12/07 11:57:17;;;;;;;20.38;6.60;;;;;;;1.91;100.00;100685.53;5083340;28;20051;-84
2021/12/07 11:59:45;;;;;;;17.90;5.90;;;;;;;1.96;100.00;100680.19;5085578;28;20504;-83
2021/12/07 12:02:10;;;;;;;23.08;5.88;;;;;;;1.99;100.00;100681.00;5087038;28;20020;-81
2021/12/07 12:04:36;;;;;;;15.27;5.47;;;;;;;1.97;100.00;100642.56;5087269;28;20420;-81
2021/12/07 12:07:03;;;;;;;21.52;4.97;;;;;;;2.02;100.00;100652.97;5087459;28;20032;-82
2021/12/07 12:09:28;;;;;;;15.88;5.13;;;;;;;2.07;100.00;100648.50;5085804;28;20028;-83
2021/12/07 12:12:09;;;;;;;16.55;4.82;;;;;;;2.17;100.00;100652.66;5092063;28;20456;-82
2021/12/07 12:14:55;;;;;;;14.95;4.72;;;;;;;2.24;100.00;100654.28;5081702;28;20028;-81
2021/12/07 12:17:51;;;;;;;13.25;4.70;;;;;;;2.33;100.00;100643.59;5076900;28;20673;-82
2021/12/07 12:20:26;;;;;;;16.27;4.32;;;;;;;2.31;100.00;100627.00;5079098;28;20035;-82
2021/12/07 12:23:04;;;;;;;15.68;5.07;;;;;;;2.47;100.00;100631.06;5080685;28;20505;-82
2021/12/07 12:25:29;;;;;;;19.92;5.57;;;;;;;2.55;100.00;100615.13;5067706;28;20028;-82
2021/12/07 12:27:57;;;;;;;16.85;5.32;;;;;;;2.61;100.00;100603.63;5068499;28;20112;-83
2021/12/07 12:30:37;;;;;;;20.20;4.75;;;;;;;2.70;100.00;100612.16;5073021;28;20036;-82
2021/12/07 12:33:11;;;;;;;12.18;4.07;;;;;;;2.74;100.00;100597.19;5081808;28;20032;-83
2021/12/07 12:35:38;;;;;;;;;;;;;;;2.83;100.00;100606.63;5087617;28;20024;-83
2021/12/07 12:38:15;;;;;;;11.63;3.80;;;;;;;2.90;100.00;100601.19;5081420;28;19916;-81
2021/12/07 12:40:41;;;;;;;13.48;4.00;;;;;;;2.90;100.00;100582.78;5086074;28;20035;-82
2021/12/07 12:43:06;;;;;;;12.40;4.13;;;;;;;2.99;100.00;100589.59;5073775;28;20256;-83
2021/12/07 12:45:36;;;;;;;13.90;3.90;;;;;;;3.03;100.00;100582.50;5085448;28;20036;-82
2021/12/07 12:48:12;;;;;;;13.73;3.47;;;;;;;3.06;99.93;100577.19;5073970;28;20087;-82
2021/12/07 12:50:40;;;;;;;19.92;5.13;;;;;;;3.08;99.20;100570.97;5087962;28;20020;-82
2021/12/07 12:53:09;;;;;;;13.18;3.30;;;;;;;3.08;99.05;100556.97;5104815;28;20035;-80
2021/12/07 12:55:38;;;;;;;12.20;3.38;;;;;;;3.09;97.87;100548.16;5091174;28;20476;-81
2021/12/07 12:58:10;;;;;;;9.68;3.63;;;;;;;3.05;98.94;100536.00;5090227;28;20153;-82